3XS7 weather

Bell Training Facility Heliport
Fort Worth, Texas, United States

Public forecast

Using degrees Fahrenheit for public forecast. Weather courtesy of forecast.io.

METAR (pilot weather report)

Closest report is Fort Worth Alliance Airport, 3.9 nm (7.2 km) SSW. Retrieved 2019/07/16 02:53 UTC (22 minutes ago):

KAFW 160253Z 16005KT 10SM CLR 30/21 A2988 RMK AO2 SLP099 T03000206 53006

TAF (pilot weather forecast)

Forecast is more than 12 hours old.

Closest forecast is Fort Worth Alliance Airport, 3.9 nm (7.2 km) SSW. Retrieved 2019/07/15 00:30 UTC (1 day ago):

TAF KAFW 152327Z 1600/1624 19006KT P6SM FEW050 FM161500 19015KT P6SM FEW040